sensor_id;sensor_type;location;lat;lon;timestamp;P1;durP1;ratioP1;P2;durP2;ratioP2
7340;SDS011;6870;50.944;6.932;2023-05-10T00:00:46;7.33;;;4.00;;
7340;SDS011;6870;50.944;6.932;2023-05-10T00:03:16;5.17;;;3.30;;
7340;SDS011;6870;50.944;6.932;2023-05-10T00:05:44;7.83;;;3.47;;
7340;SDS011;6870;50.944;6.932;2023-05-10T00:08:12;6.87;;;3.53;;
7340;SDS011;6870;50.944;6.932;2023-05-10T00:10:40;5.53;;;4.07;;
7340;SDS011;6870;50.944;6.932;2023-05-10T00:13:08;7.97;;;3.90;;
7340;SDS011;6870;50.944;6.932;2023-05-10T00:15:36;6.50;;;3.77;;
7340;SDS011;6870;50.944;6.932;2023-05-10T00:18:04;7.60;;;4.13;;
7340;SDS011;6870;50.944;6.932;2023-05-10T00:20:33;7.47;;;3.13;;
7340;SDS011;6870;50.944;6.932;2023-05-10T00:23:01;4.50;;;3.13;;
7340;SDS011;6870;50.944;6.932;2023-05-10T00:25:29;8.77;;;3.90;;
7340;SDS011;6870;50.944;6.932;2023-05-10T00:27:57;5.77;;;3.50;;
7340;SDS011;6870;50.944;6.932;2023-05-10T00:30:27;7.43;;;4.00;;
7340;SDS011;6870;50.944;6.932;2023-05-10T00:32:55;7.20;;;3.93;;
7340;SDS011;6870;50.944;6.932;2023-05-10T00:35:23;9.63;;;3.93;;
7340;SDS011;6870;50.944;6.932;2023-05-10T00:37:53;8.07;;;4.07;;
7340;SDS011;6870;50.944;6.932;2023-05-10T00:40:22;4.37;;;3.27;;
7340;SDS011;6870;50.944;6.932;2023-05-10T00:42:50;5.70;;;4.07;;
7340;SDS011;6870;50.944;6.932;2023-05-10T00:45:18;10.77;;;3.87;;
7340;SDS011;6870;50.944;6.932;2023-05-10T00:47:46;7.67;;;4.37;;
7340;SDS011;6870;50.944;6.932;2023-05-10T00:50:15;6.90;;;4.03;;
7340;SDS011;6870;50.944;6.932;2023-05-10T00:52:43;5.63;;;3.07;;
7340;SDS011;6870;50.944;6.932;2023-05-10T00:55:13;7.27;;;3.27;;
7340;SDS011;6870;50.944;6.932;2023-05-10T00:57:41;5.33;;;3.73;;
7340;SDS011;6870;50.944;6.932;2023-05-10T01:00:10;7.60;;;3.87;;
7340;SDS011;6870;50.944;6.932;2023-05-10T01:02:44;4.53;;;3.00;;
7340;SDS011;6870;50.944;6.932;2023-05-10T01:05:12;6.30;;;3.27;;
7340;SDS011;6870;50.944;6.932;2023-05-10T01:07:41;6.20;;;3.50;;
7340;SDS011;6870;50.944;6.932;2023-05-10T01:10:09;6.00;;;3.30;;
7340;SDS011;6870;50.944;6.932;2023-05-10T01:12:39;4.73;;;3.07;;
7340;SDS011;6870;50.944;6.932;2023-05-10T01:15:10;6.10;;;3.60;;
7340;SDS011;6870;50.944;6.932;2023-05-10T01:17:40;5.87;;;3.10;;
7340;SDS011;6870;50.944;6.932;2023-05-10T01:20:10;4.73;;;3.10;;
7340;SDS011;6870;50.944;6.932;2023-05-10T01:22:42;6.40;;;3.77;;
7340;SDS011;6870;50.944;6.932;2023-05-10T01:25:58;6.17;;;3.30;;
7340;SDS011;6870;50.944;6.932;2023-05-10T01:32:06;4.90;;;3.63;;
7340;SDS011;6870;50.944;6.932;2023-05-10T01:34:46;5.87;;;3.10;;
7340;SDS011;6870;50.944;6.932;2023-05-10T01:37:24;6.77;;;3.97;;
7340;SDS011;6870;50.944;6.932;2023-05-10T01:40:02;9.27;;;3.47;;
7340;SDS011;6870;50.944;6.932;2023-05-10T01:42:43;5.13;;;3.37;;
7340;SDS011;6870;50.944;6.932;2023-05-10T01:45:20;7.83;;;3.17;;
7340;SDS011;6870;50.944;6.932;2023-05-10T01:48:02;5.17;;;3.00;;
7340;SDS011;6870;50.944;6.932;2023-05-10T01:50:34;5.57;;;2.93;;
7340;SDS011;6870;50.944;6.932;2023-05-10T01:53:06;6.50;;;4.17;;
7340;SDS011;6870;50.944;6.932;2023-05-10T01:55:35;5.73;;;2.90;;
7340;SDS011;6870;50.944;6.932;2023-05-10T01:58:13;9.23;;;3.47;;
7340;SDS011;6870;50.944;6.932;2023-05-10T02:00:44;7.50;;;3.90;;
7340;SDS011;6870;50.944;6.932;2023-05-10T02:03:16;6.67;;;2.77;;
7340;SDS011;6870;50.944;6.932;2023-05-10T02:05:48;4.00;;;2.87;;
7340;SDS011;6870;50.944;6.932;2023-05-10T02:08:17;4.50;;;3.10;;
7340;SDS011;6870;50.944;6.932;2023-05-10T02:10:49;5.00;;;2.83;;
7340;SDS011;6870;50.944;6.932;2023-05-10T02:13:19;4.90;;;2.90;;
7340;SDS011;6870;50.944;6.932;2023-05-10T02:15:51;5.20;;;3.20;;
7340;SDS011;6870;50.944;6.932;2023-05-10T02:18:22;6.00;;;3.17;;
7340;SDS011;6870;50.944;6.932;2023-05-10T02:20:53;5.30;;;3.27;;
7340;SDS011;6870;50.944;6.932;2023-05-10T02:23:23;6.27;;;2.90;;
7340;SDS011;6870;50.944;6.932;2023-05-10T02:25:53;5.00;;;3.30;;
7340;SDS011;6870;50.944;6.932;2023-05-10T02:28:22;7.20;;;3.13;;
7340;SDS011;6870;50.944;6.932;2023-05-10T02:30:52;5.40;;;3.00;;
7340;SDS011;6870;50.944;6.932;2023-05-10T02:33:23;5.40;;;3.40;;
7340;SDS011;6870;50.944;6.932;2023-05-10T02:35:52;7.20;;;3.70;;
7340;SDS011;6870;50.944;6.932;2023-05-10T02:38:22;3.93;;;2.80;;
7340;SDS011;6870;50.944;6.932;2023-05-10T02:40:51;4.07;;;3.30;;
7340;SDS011;6870;50.944;6.932;2023-05-10T02:43:22;5.23;;;2.37;;
7340;SDS011;6870;50.944;6.932;2023-05-10T02:45:52;4.23;;;2.90;;
7340;SDS011;6870;50.944;6.932;2023-05-10T02:48:20;5.43;;;2.20;;
7340;SDS011;6870;50.944;6.932;2023-05-10T02:50:50;4.57;;;2.90;;
7340;SDS011;6870;50.944;6.932;2023-05-10T02:53:21;5.50;;;3.37;;
7340;SDS011;6870;50.944;6.932;2023-05-10T02:55:58;3.90;;;2.57;;
7340;SDS011;6870;50.944;6.932;2023-05-10T02:58:30;4.07;;;2.47;;
7340;SDS011;6870;50.944;6.932;2023-05-10T03:00:58;5.30;;;3.47;;
7340;SDS011;6870;50.944;6.932;2023-05-10T03:03:28;4.27;;;2.77;;
7340;SDS011;6870;50.944;6.932;2023-05-10T03:05:57;4.97;;;3.27;;
7340;SDS011;6870;50.944;6.932;2023-05-10T03:08:25;4.87;;;2.73;;
7340;SDS011;6870;50.944;6.932;2023-05-10T03:11:01;6.37;;;2.60;;
7340;SDS011;6870;50.944;6.932;2023-05-10T03:13:47;4.63;;;2.57;;
7340;SDS011;6870;50.944;6.932;2023-05-10T03:16:25;4.20;;;3.07;;
7340;SDS011;6870;50.944;6.932;2023-05-10T03:19:06;4.43;;;2.67;;
7340;SDS011;6870;50.944;6.932;2023-05-10T03:21:41;4.87;;;2.73;;
7340;SDS011;6870;50.944;6.932;2023-05-10T03:24:18;7.87;;;3.63;;
7340;SDS011;6870;50.944;6.932;2023-05-10T03:26:50;6.07;;;2.73;;
7340;SDS011;6870;50.944;6.932;2023-05-10T03:29:21;9.13;;;3.17;;
7340;SDS011;6870;50.944;6.932;2023-05-10T03:31:50;10.83;;;3.20;;
7340;SDS011;6870;50.944;6.932;2023-05-10T03:34:24;4.83;;;2.40;;
7340;SDS011;6870;50.944;6.932;2023-05-10T03:36:52;4.10;;;2.70;;
7340;SDS011;6870;50.944;6.932;2023-05-10T03:39:22;8.23;;;2.87;;
7340;SDS011;6870;50.944;6.932;2023-05-10T03:41:51;3.00;;;2.57;;
7340;SDS011;6870;50.944;6.932;2023-05-10T03:44:19;3.77;;;2.30;;
7340;SDS011;6870;50.944;6.932;2023-05-10T03:46:47;4.93;;;2.87;;
7340;SDS011;6870;50.944;6.932;2023-05-10T03:49:15;5.37;;;2.70;;
7340;SDS011;6870;50.944;6.932;2023-05-10T03:51:44;4.80;;;2.60;;
7340;SDS011;6870;50.944;6.932;2023-05-10T03:54:13;4.10;;;2.37;;
7340;SDS011;6870;50.944;6.932;2023-05-10T03:56:41;2.80;;;2.13;;
7340;SDS011;6870;50.944;6.932;2023-05-10T03:59:09;5.30;;;2.33;;
7340;SDS011;6870;50.944;6.932;2023-05-10T04:01:37;12.60;;;2.67;;
7340;SDS011;6870;50.944;6.932;2023-05-10T04:04:05;4.10;;;2.87;;
7340;SDS011;6870;50.944;6.932;2023-05-10T04:06:34;5.70;;;2.30;;
7340;SDS011;6870;50.944;6.932;2023-05-10T04:09:03;7.43;;;2.73;;
7340;SDS011;6870;50.944;6.932;2023-05-10T04:11:32;3.80;;;2.03;;
7340;SDS011;6870;50.944;6.932;2023-05-10T04:14:03;7.60;;;2.80;;
7340;SDS011;6870;50.944;6.932;2023-05-10T04:16:32;4.40;;;2.40;;
7340;SDS011;6870;50.944;6.932;2023-05-10T04:19:00;5.07;;;2.50;;
7340;SDS011;6870;50.944;6.932;2023-05-10T04:21:28;5.90;;;2.90;;
7340;SDS011;6870;50.944;6.932;2023-05-10T04:23:57;4.33;;;2.80;;
7340;SDS011;6870;50.944;6.932;2023-05-10T04:26:26;3.70;;;3.20;;
7340;SDS011;6870;50.944;6.932;2023-05-10T04:28:54;4.50;;;2.57;;
7340;SDS011;6870;50.944;6.932;2023-05-10T04:31:22;3.83;;;2.20;;
7340;SDS011;6870;50.944;6.932;2023-05-10T04:33:50;2.67;;;2.43;;
7340;SDS011;6870;50.944;6.932;2023-05-10T04:36:18;14.97;;;6.03;;
7340;SDS011;6870;50.944;6.932;2023-05-10T04:38:46;17.33;;;6.40;;
7340;SDS011;6870;50.944;6.932;2023-05-10T04:41:14;27.63;;;8.20;;
7340;SDS011;6870;50.944;6.932;2023-05-10T04:43:43;10.43;;;4.70;;
7340;SDS011;6870;50.944;6.932;2023-05-10T04:46:12;14.90;;;5.73;;
7340;SDS011;6870;50.944;6.932;2023-05-10T04:48:40;15.30;;;6.40;;
7340;SDS011;6870;50.944;6.932;2023-05-10T04:51:08;9.77;;;4.77;;
7340;SDS011;6870;50.944;6.932;2023-05-10T04:53:36;11.47;;;4.77;;
7340;SDS011;6870;50.944;6.932;2023-05-10T04:56:04;10.27;;;4.60;;
7340;SDS011;6870;50.944;6.932;2023-05-10T04:58:33;9.50;;;4.63;;
7340;SDS011;6870;50.944;6.932;2023-05-10T05:01:06;9.73;;;3.87;;
7340;SDS011;6870;50.944;6.932;2023-05-10T05:03:34;8.20;;;4.00;;
7340;SDS011;6870;50.944;6.932;2023-05-10T05:06:03;7.90;;;3.30;;
7340;SDS011;6870;50.944;6.932;2023-05-10T05:08:31;6.93;;;3.90;;
7340;SDS011;6870;50.944;6.932;2023-05-10T05:10:59;10.57;;;3.90;;
7340;SDS011;6870;50.944;6.932;2023-05-10T05:13:27;6.20;;;3.60;;
7340;SDS011;6870;50.944;6.932;2023-05-10T05:15:55;8.03;;;4.07;;
7340;SDS011;6870;50.944;6.932;2023-05-10T05:18:24;5.50;;;2.80;;
7340;SDS011;6870;50.944;6.932;2023-05-10T05:20:52;6.80;;;3.80;;
7340;SDS011;6870;50.944;6.932;2023-05-10T05:23:21;6.23;;;3.50;;
7340;SDS011;6870;50.944;6.932;2023-05-10T05:25:51;7.37;;;3.40;;
7340;SDS011;6870;50.944;6.932;2023-05-10T05:28:19;6.50;;;4.00;;
7340;SDS011;6870;50.944;6.932;2023-05-10T05:30:47;5.50;;;3.60;;
7340;SDS011;6870;50.944;6.932;2023-05-10T05:33:15;9.40;;;4.77;;
7340;SDS011;6870;50.944;6.932;2023-05-10T05:35:45;4.80;;;3.67;;
7340;SDS011;6870;50.944;6.932;2023-05-10T05:38:16;5.53;;;4.27;;
7340;SDS011;6870;50.944;6.932;2023-05-10T05:40:45;5.00;;;3.80;;
7340;SDS011;6870;50.944;6.932;2023-05-10T05:43:13;5.20;;;3.23;;
7340;SDS011;6870;50.944;6.932;2023-05-10T05:45:41;6.03;;;3.20;;
7340;SDS011;6870;50.944;6.932;2023-05-10T05:48:09;7.73;;;3.87;;
7340;SDS011;6870;50.944;6.932;2023-05-10T05:50:37;6.70;;;3.70;;
7340;SDS011;6870;50.944;6.932;2023-05-10T05:53:06;6.17;;;3.53;;
7340;SDS011;6870;50.944;6.932;2023-05-10T05:55:35;6.03;;;3.47;;
7340;SDS011;6870;50.944;6.932;2023-05-10T05:58:03;4.57;;;3.53;;
7340;SDS011;6870;50.944;6.932;2023-05-10T06:00:31;4.47;;;3.73;;
7340;SDS011;6870;50.944;6.932;2023-05-10T06:02:59;4.90;;;3.40;;
7340;SDS011;6870;50.944;6.932;2023-05-10T06:05:27;4.67;;;2.90;;
7340;SDS011;6870;50.944;6.932;2023-05-10T06:07:55;3.93;;;3.20;;
7340;SDS011;6870;50.944;6.932;2023-05-10T06:10:24;7.50;;;4.20;;
7340;SDS011;6870;50.944;6.932;2023-05-10T06:12:52;5.50;;;3.03;;
7340;SDS011;6870;50.944;6.932;2023-05-10T06:15:21;4.73;;;2.90;;
7340;SDS011;6870;50.944;6.932;2023-05-10T06:17:49;4.20;;;3.33;;
7340;SDS011;6870;50.944;6.932;2023-05-10T06:20:17;5.13;;;2.77;;
7340;SDS011;6870;50.944;6.932;2023-05-10T06:22:45;3.87;;;3.40;;
7340;SDS011;6870;50.944;6.932;2023-05-10T06:25:13;5.00;;;3.27;;
7340;SDS011;6870;50.944;6.932;2023-05-10T06:27:45;5.00;;;3.27;;
7340;SDS011;6870;50.944;6.932;2023-05-10T06:30:18;6.37;;;3.33;;
7340;SDS011;6870;50.944;6.932;2023-05-10T06:32:49;8.37;;;3.97;;
7340;SDS011;6870;50.944;6.932;2023-05-10T06:35:18;4.10;;;3.67;;
7340;SDS011;6870;50.944;6.932;2023-05-10T06:37:46;5.43;;;2.83;;
7340;SDS011;6870;50.944;6.932;2023-05-10T06:40:14;5.13;;;3.60;;
7340;SDS011;6870;50.944;6.932;2023-05-10T06:42:42;7.30;;;3.50;;
7340;SDS011;6870;50.944;6.932;2023-05-10T06:45:14;13.43;;;4.30;;
7340;SDS011;6870;50.944;6.932;2023-05-10T06:47:43;4.90;;;3.87;;
7340;SDS011;6870;50.944;6.932;2023-05-10T06:50:12;7.33;;;3.50;;
7340;SDS011;6870;50.944;6.932;2023-05-10T06:52:40;5.03;;;3.50;;
7340;SDS011;6870;50.944;6.932;2023-05-10T06:55:09;7.20;;;3.90;;
7340;SDS011;6870;50.944;6.932;2023-05-10T06:57:38;5.60;;;4.30;;
7340;SDS011;6870;50.944;6.932;2023-05-10T07:00:06;5.90;;;3.33;;
7340;SDS011;6870;50.944;6.932;2023-05-10T07:02:37;7.27;;;4.40;;
7340;SDS011;6870;50.944;6.932;2023-05-10T07:05:05;7.80;;;3.90;;
7340;SDS011;6870;50.944;6.932;2023-05-10T07:07:34;6.33;;;3.20;;
7340;SDS011;6870;50.944;6.932;2023-05-10T07:10:02;6.60;;;3.40;;
7340;SDS011;6870;50.944;6.932;2023-05-10T07:12:31;6.80;;;3.80;;
7340;SDS011;6870;50.944;6.932;2023-05-10T07:14:59;5.03;;;4.20;;
7340;SDS011;6870;50.944;6.932;2023-05-10T07:17:27;4.50;;;3.30;;
7340;SDS011;6870;50.944;6.932;2023-05-10T07:19:56;5.07;;;3.67;;
7340;SDS011;6870;50.944;6.932;2023-05-10T07:22:24;4.53;;;3.50;;
7340;SDS011;6870;50.944;6.932;2023-05-10T07:24:53;8.57;;;3.90;;
7340;SDS011;6870;50.944;6.932;2023-05-10T07:27:21;4.80;;;3.10;;
7340;SDS011;6870;50.944;6.932;2023-05-10T07:29:49;13.90;;;4.13;;
7340;SDS011;6870;50.944;6.932;2023-05-10T07:32:17;4.53;;;4.10;;
7340;SDS011;6870;50.944;6.932;2023-05-10T07:34:45;5.50;;;4.60;;
7340;SDS011;6870;50.944;6.932;2023-05-10T07:37:15;5.20;;;3.50;;
7340;SDS011;6870;50.944;6.932;2023-05-10T07:39:43;6.30;;;4.17;;
7340;SDS011;6870;50.944;6.932;2023-05-10T07:42:11;4.83;;;3.83;;
7340;SDS011;6870;50.944;6.932;2023-05-10T07:44:39;5.00;;;3.87;;
7340;SDS011;6870;50.944;6.932;2023-05-10T07:47:07;5.07;;;4.23;;
7340;SDS011;6870;50.944;6.932;2023-05-10T07:49:36;4.90;;;3.80;;
7340;SDS011;6870;50.944;6.932;2023-05-10T07:52:04;6.00;;;4.40;;
7340;SDS011;6870;50.944;6.932;2023-05-10T07:54:33;5.07;;;3.53;;
7340;SDS011;6870;50.944;6.932;2023-05-10T07:57:01;8.10;;;4.17;;
7340;SDS011;6870;50.944;6.932;2023-05-10T07:59:29;5.80;;;3.30;;
7340;SDS011;6870;50.944;6.932;2023-05-10T08:01:58;7.20;;;4.00;;
7340;SDS011;6870;50.944;6.932;2023-05-10T08:04:27;4.00;;;3.40;;
7340;SDS011;6870;50.944;6.932;2023-05-10T08:06:55;5.60;;;3.67;;
7340;SDS011;6870;50.944;6.932;2023-05-10T08:09:23;6.10;;;3.53;;
7340;SDS011;6870;50.944;6.932;2023-05-10T08:11:52;3.83;;;3.53;;
7340;SDS011;6870;50.944;6.932;2023-05-10T08:14:20;7.33;;;4.60;;
7340;SDS011;6870;50.944;6.932;2023-05-10T08:16:48;4.63;;;3.60;;
7340;SDS011;6870;50.944;6.932;2023-05-10T08:19:16;4.00;;;3.30;;
7340;SDS011;6870;50.944;6.932;2023-05-10T08:21:45;5.40;;;3.83;;
7340;SDS011;6870;50.944;6.932;2023-05-10T08:24:13;5.23;;;3.60;;
7340;SDS011;6870;50.944;6.932;2023-05-10T08:26:41;5.57;;;3.07;;
7340;SDS011;6870;50.944;6.932;2023-05-10T08:29:11;5.47;;;3.80;;
7340;SDS011;6870;50.944;6.932;2023-05-10T08:31:39;3.60;;;3.30;;
7340;SDS011;6870;50.944;6.932;2023-05-10T08:34:07;3.50;;;2.83;;
7340;SDS011;6870;50.944;6.932;2023-05-10T08:36:35;5.57;;;3.80;;
7340;SDS011;6870;50.944;6.932;2023-05-10T08:39:03;4.97;;;3.50;;
7340;SDS011;6870;50.944;6.932;2023-05-10T08:41:41;4.30;;;3.27;;
7340;SDS011;6870;50.944;6.932;2023-05-10T08:44:13;4.73;;;3.37;;
7340;SDS011;6870;50.944;6.932;2023-05-10T08:46:42;5.27;;;3.70;;
7340;SDS011;6870;50.944;6.932;2023-05-10T08:49:15;5.13;;;3.33;;
7340;SDS011;6870;50.944;6.932;2023-05-10T08:51:47;4.90;;;3.17;;
7340;SDS011;6870;50.944;6.932;2023-05-10T08:54:19;4.03;;;3.50;;
7340;SDS011;6870;50.944;6.932;2023-05-10T08:56:48;3.67;;;3.27;;
7340;SDS011;6870;50.944;6.932;2023-05-10T08:59:18;5.00;;;3.50;;
7340;SDS011;6870;50.944;6.932;2023-05-10T09:01:46;3.63;;;2.77;;
7340;SDS011;6870;50.944;6.932;2023-05-10T09:04:15;2.87;;;2.27;;
7340;SDS011;6870;50.944;6.932;2023-05-10T09:06:44;4.47;;;3.60;;
7340;SDS011;6870;50.944;6.932;2023-05-10T09:09:12;4.60;;;3.23;;
7340;SDS011;6870;50.944;6.932;2023-05-10T09:11:40;4.20;;;3.10;;
7340;SDS011;6870;50.944;6.932;2023-05-10T09:14:09;3.93;;;3.53;;
7340;SDS011;6870;50.944;6.932;2023-05-10T09:16:40;4.50;;;3.70;;
7340;SDS011;6870;50.944;6.932;2023-05-10T09:19:08;4.30;;;3.10;;
7340;SDS011;6870;50.944;6.932;2023-05-10T09:21:37;4.63;;;3.17;;
7340;SDS011;6870;50.944;6.932;2023-05-10T09:24:05;3.70;;;3.40;;
7340;SDS011;6870;50.944;6.932;2023-05-10T09:26:35;4.73;;;3.90;;
7340;SDS011;6870;50.944;6.932;2023-05-10T09:29:13;3.10;;;2.80;;
7340;SDS011;6870;50.944;6.932;2023-05-10T09:31:45;3.90;;;3.33;;
7340;SDS011;6870;50.944;6.932;2023-05-10T09:34:17;3.87;;;3.37;;
7340;SDS011;6870;50.944;6.932;2023-05-10T09:36:51;3.43;;;2.77;;
7340;SDS011;6870;50.944;6.932;2023-05-10T09:39:20;4.43;;;4.03;;
7340;SDS011;6870;50.944;6.932;2023-05-10T09:41:57;4.73;;;3.20;;
7340;SDS011;6870;50.944;6.932;2023-05-10T09:44:27;4.03;;;3.43;;
7340;SDS011;6870;50.944;6.932;2023-05-10T09:46:56;6.07;;;3.20;;
7340;SDS011;6870;50.944;6.932;2023-05-10T09:49:24;4.23;;;3.30;;
7340;SDS011;6870;50.944;6.932;2023-05-10T09:52:02;7.90;;;4.00;;
7340;SDS011;6870;50.944;6.932;2023-05-10T09:54:32;4.03;;;3.60;;
7340;SDS011;6870;50.944;6.932;2023-05-10T09:57:01;4.50;;;4.00;;
7340;SDS011;6870;50.944;6.932;2023-05-10T09:59:29;5.20;;;4.70;;
7340;SDS011;6870;50.944;6.932;2023-05-10T10:02:02;7.27;;;5.07;;
7340;SDS011;6870;50.944;6.932;2023-05-10T10:04:30;11.23;;;4.67;;
7340;SDS011;6870;50.944;6.932;2023-05-10T10:06:59;5.17;;;4.67;;
7340;SDS011;6870;50.944;6.932;2023-05-10T10:09:32;4.67;;;4.27;;
7340;SDS011;6870;50.944;6.932;2023-05-10T10:12:02;6.27;;;4.50;;
7340;SDS011;6870;50.944;6.932;2023-05-10T10:14:30;3.30;;;2.90;;
7340;SDS011;6870;50.944;6.932;2023-05-10T10:17:00;6.13;;;4.87;;
7340;SDS011;6870;50.944;6.932;2023-05-10T10:19:34;4.40;;;3.67;;
7340;SDS011;6870;50.944;6.932;2023-05-10T10:22:03;8.53;;;4.37;;
7340;SDS011;6870;50.944;6.932;2023-05-10T10:24:32;6.37;;;4.70;;
7340;SDS011;6870;50.944;6.932;2023-05-10T10:27:02;4.93;;;4.20;;
7340;SDS011;6870;50.944;6.932;2023-05-10T10:29:47;4.50;;;3.90;;
7340;SDS011;6870;50.944;6.932;2023-05-10T10:32:25;3.90;;;3.43;;
7340;SDS011;6870;50.944;6.932;2023-05-10T10:35:03;6.13;;;4.30;;
7340;SDS011;6870;50.944;6.932;2023-05-10T10:37:42;8.67;;;4.47;;
7340;SDS011;6870;50.944;6.932;2023-05-10T10:40:24;6.20;;;4.57;;
7340;SDS011;6870;50.944;6.932;2023-05-10T10:42:56;5.20;;;4.33;;
7340;SDS011;6870;50.944;6.932;2023-05-10T10:45:25;6.20;;;4.30;;
7340;SDS011;6870;50.944;6.932;2023-05-10T10:47:56;5.70;;;4.67;;
7340;SDS011;6870;50.944;6.932;2023-05-10T10:50:55;4.03;;;3.63;;
7340;SDS011;6870;50.944;6.932;2023-05-10T10:53:25;5.40;;;3.90;;
7340;SDS011;6870;50.944;6.932;2023-05-10T10:56:02;5.27;;;4.73;;
7340;SDS011;6870;50.944;6.932;2023-05-10T10:58:35;7.07;;;4.83;;
7340;SDS011;6870;50.944;6.932;2023-05-10T11:01:11;4.90;;;4.30;;
7340;SDS011;6870;50.944;6.932;2023-05-10T11:06:46;7.60;;;5.13;;
7340;SDS011;6870;50.944;6.932;2023-05-10T11:09:14;4.67;;;3.80;;
7340;SDS011;6870;50.944;6.932;2023-05-10T11:11:52;7.30;;;5.53;;
7340;SDS011;6870;50.944;6.932;2023-05-10T11:14:22;6.30;;;4.95;;
7340;SDS011;6870;50.944;6.932;2023-05-10T11:16:50;6.10;;;4.90;;
7340;SDS011;6870;50.944;6.932;2023-05-10T11:19:20;5.30;;;3.93;;
7340;SDS011;6870;50.944;6.932;2023-05-10T11:21:48;4.80;;;4.10;;
7340;SDS011;6870;50.944;6.932;2023-05-10T11:24:19;4.77;;;3.50;;
7340;SDS011;6870;50.944;6.932;2023-05-10T11:26:50;3.77;;;3.37;;
7340;SDS011;6870;50.944;6.932;2023-05-10T11:29:18;3.87;;;3.47;;
7340;SDS011;6870;50.944;6.932;2023-05-10T11:31:46;4.07;;;3.30;;
7340;SDS011;6870;50.944;6.932;2023-05-10T11:34:26;3.57;;;3.00;;
7340;SDS011;6870;50.944;6.932;2023-05-10T11:36:57;4.50;;;3.60;;
7340;SDS011;6870;50.944;6.932;2023-05-10T11:39:25;3.40;;;3.00;;
7340;SDS011;6870;50.944;6.932;2023-05-10T11:41:54;5.40;;;3.53;;
7340;SDS011;6870;50.944;6.932;2023-05-10T11:44:23;5.50;;;3.37;;
7340;SDS011;6870;50.944;6.932;2023-05-10T11:46:57;3.50;;;2.83;;
7340;SDS011;6870;50.944;6.932;2023-05-10T11:49:27;3.63;;;3.20;;
7340;SDS011;6870;50.944;6.932;2023-05-10T11:52:03;3.57;;;3.23;;
7340;SDS011;6870;50.944;6.932;2023-05-10T11:54:32;3.37;;;2.67;;
7340;SDS011;6870;50.944;6.932;2023-05-10T11:57:01;3.17;;;2.63;;
7340;SDS011;6870;50.944;6.932;2023-05-10T11:59:29;5.17;;;3.00;;
7340;SDS011;6870;50.944;6.932;2023-05-10T12:01:57;2.90;;;2.33;;
7340;SDS011;6870;50.944;6.932;2023-05-10T12:04:25;9.93;;;3.03;;
7340;SDS011;6870;50.944;6.932;2023-05-10T12:06:55;3.60;;;2.90;;
7340;SDS011;6870;50.944;6.932;2023-05-10T12:09:23;3.50;;;2.80;;
7340;SDS011;6870;50.944;6.932;2023-05-10T12:12:08;2.90;;;2.27;;
7340;SDS011;6870;50.944;6.932;2023-05-10T12:14:36;2.50;;;2.30;;
7340;SDS011;6870;50.944;6.932;2023-05-10T12:17:04;2.60;;;2.40;;
7340;SDS011;6870;50.944;6.932;2023-05-10T12:19:38;3.10;;;2.77;;
7340;SDS011;6870;50.944;6.932;2023-05-10T12:22:06;3.33;;;2.60;;
7340;SDS011;6870;50.944;6.932;2023-05-10T12:24:34;3.70;;;2.47;;
7340;SDS011;6870;50.944;6.932;2023-05-10T12:27:04;3.67;;;2.37;;
7340;SDS011;6870;50.944;6.932;2023-05-10T12:29:34;3.33;;;2.57;;
7340;SDS011;6870;50.944;6.932;2023-05-10T12:32:02;4.22;;;2.72;;
7340;SDS011;6870;50.944;6.932;2023-05-10T12:34:31;3.33;;;2.20;;
7340;SDS011;6870;50.944;6.932;2023-05-10T12:37:02;2.63;;;2.43;;
7340;SDS011;6870;50.944;6.932;2023-05-10T12:39:38;3.37;;;2.37;;
7340;SDS011;6870;50.944;6.932;2023-05-10T12:42:07;3.03;;;2.50;;
7340;SDS011;6870;50.944;6.932;2023-05-10T12:44:36;8.90;;;2.60;;
7340;SDS011;6870;50.944;6.932;2023-05-10T12:47:04;2.63;;;2.03;;
7340;SDS011;6870;50.944;6.932;2023-05-10T12:49:32;2.73;;;1.80;;
7340;SDS011;6870;50.944;6.932;2023-05-10T12:52:02;3.40;;;2.80;;
7340;SDS011;6870;50.944;6.932;2023-05-10T12:54:30;2.03;;;1.80;;
7340;SDS011;6870;50.944;6.932;2023-05-10T12:56:58;2.27;;;1.90;;
7340;SDS011;6870;50.944;6.932;2023-05-10T12:59:26;4.80;;;2.40;;
7340;SDS011;6870;50.944;6.932;2023-05-10T13:01:54;3.20;;;2.80;;
7340;SDS011;6870;50.944;6.932;2023-05-10T13:04:22;2.47;;;2.00;;
7340;SDS011;6870;50.944;6.932;2023-05-10T13:06:50;3.60;;;2.10;;
7340;SDS011;6870;50.944;6.932;2023-05-10T13:09:20;2.77;;;1.93;;
7340;SDS011;6870;50.944;6.932;2023-05-10T13:11:48;2.10;;;1.83;;
7340;SDS011;6870;50.944;6.932;2023-05-10T13:14:16;1.93;;;1.60;;
7340;SDS011;6870;50.944;6.932;2023-05-10T13:16:46;1.77;;;1.60;;
7340;SDS011;6870;50.944;6.932;2023-05-10T13:19:15;2.67;;;1.70;;
7340;SDS011;6870;50.944;6.932;2023-05-10T13:21:44;2.13;;;1.67;;
7340;SDS011;6870;50.944;6.932;2023-05-10T13:24:12;2.60;;;1.90;;
7340;SDS011;6870;50.944;6.932;2023-05-10T13:26:42;2.43;;;2.00;;
7340;SDS011;6870;50.944;6.932;2023-05-10T13:29:10;2.87;;;2.20;;
7340;SDS011;6870;50.944;6.932;2023-05-10T13:31:38;1.97;;;1.63;;
7340;SDS011;6870;50.944;6.932;2023-05-10T13:34:06;1.97;;;1.57;;
7340;SDS011;6870;50.944;6.932;2023-05-10T13:36:34;1.73;;;1.40;;
7340;SDS011;6870;50.944;6.932;2023-05-10T13:39:02;1.80;;;1.30;;
7340;SDS011;6870;50.944;6.932;2023-05-10T13:41:31;1.90;;;1.43;;
7340;SDS011;6870;50.944;6.932;2023-05-10T13:44:01;2.27;;;1.90;;
7340;SDS011;6870;50.944;6.932;2023-05-10T13:46:29;2.70;;;1.63;;
7340;SDS011;6870;50.944;6.932;2023-05-10T13:48:57;4.00;;;1.63;;
7340;SDS011;6870;50.944;6.932;2023-05-10T13:51:25;1.90;;;1.67;;
7340;SDS011;6870;50.944;6.932;2023-05-10T13:53:53;2.30;;;1.60;;
7340;SDS011;6870;50.944;6.932;2023-05-10T13:56:21;1.60;;;1.27;;
7340;SDS011;6870;50.944;6.932;2023-05-10T13:58:49;1.70;;;1.43;;
7340;SDS011;6870;50.944;6.932;2023-05-10T14:01:18;1.90;;;1.60;;
7340;SDS011;6870;50.944;6.932;2023-05-10T14:03:47;2.00;;;1.57;;
7340;SDS011;6870;50.944;6.932;2023-05-10T14:06:15;2.20;;;1.63;;
7340;SDS011;6870;50.944;6.932;2023-05-10T14:08:43;2.60;;;1.90;;
7340;SDS011;6870;50.944;6.932;2023-05-10T14:11:11;2.07;;;1.30;;
7340;SDS011;6870;50.944;6.932;2023-05-10T14:13:39;1.80;;;1.63;;
7340;SDS011;6870;50.944;6.932;2023-05-10T14:16:08;3.10;;;1.67;;
7340;SDS011;6870;50.944;6.932;2023-05-10T14:18:37;2.10;;;1.90;;
7340;SDS011;6870;50.944;6.932;2023-05-10T14:21:05;2.73;;;1.80;;
7340;SDS011;6870;50.944;6.932;2023-05-10T14:23:33;1.93;;;1.57;;
7340;SDS011;6870;50.944;6.932;2023-05-10T14:26:01;2.67;;;1.80;;
7340;SDS011;6870;50.944;6.932;2023-05-10T14:28:30;3.83;;;1.30;;
7340;SDS011;6870;50.944;6.932;2023-05-10T14:30:58;11.10;;;1.70;;
7340;SDS011;6870;50.944;6.932;2023-05-10T14:33:26;7.50;;;1.80;;
7340;SDS011;6870;50.944;6.932;2023-05-10T14:35:55;1.40;;;1.20;;
7340;SDS011;6870;50.944;6.932;2023-05-10T14:38:23;2.47;;;1.40;;
7340;SDS011;6870;50.944;6.932;2023-05-10T14:40:52;1.60;;;1.00;;
7340;SDS011;6870;50.944;6.932;2023-05-10T14:43:20;2.20;;;1.37;;
7340;SDS011;6870;50.944;6.932;2023-05-10T14:45:48;1.60;;;1.10;;
7340;SDS011;6870;50.944;6.932;2023-05-10T14:48:16;6.30;;;1.47;;
7340;SDS011;6870;50.944;6.932;2023-05-10T14:50:44;2.30;;;1.80;;
7340;SDS011;6870;50.944;6.932;2023-05-10T14:53:14;3.00;;;1.53;;
7340;SDS011;6870;50.944;6.932;2023-05-10T14:55:42;2.17;;;1.60;;
7340;SDS011;6870;50.944;6.932;2023-05-10T14:58:10;3.43;;;1.20;;
7340;SDS011;6870;50.944;6.932;2023-05-10T15:00:38;1.80;;;1.30;;
7340;SDS011;6870;50.944;6.932;2023-05-10T15:03:06;2.23;;;1.67;;
7340;SDS011;6870;50.944;6.932;2023-05-10T15:05:35;2.37;;;1.23;;
7340;SDS011;6870;50.944;6.932;2023-05-10T15:08:04;10.57;;;1.80;;
7340;SDS011;6870;50.944;6.932;2023-05-10T15:10:33;3.40;;;1.90;;
7340;SDS011;6870;50.944;6.932;2023-05-10T15:13:03;2.00;;;1.53;;
7340;SDS011;6870;50.944;6.932;2023-05-10T15:15:31;4.63;;;1.70;;
7340;SDS011;6870;50.944;6.932;2023-05-10T15:17:59;2.30;;;1.70;;
7340;SDS011;6870;50.944;6.932;2023-05-10T15:20:27;1.57;;;1.40;;
7340;SDS011;6870;50.944;6.932;2023-05-10T15:22:55;2.33;;;1.47;;
7340;SDS011;6870;50.944;6.932;2023-05-10T15:25:23;2.73;;;1.80;;
7340;SDS011;6870;50.944;6.932;2023-05-10T15:27:53;3.17;;;1.57;;
7340;SDS011;6870;50.944;6.932;2023-05-10T15:30:21;2.33;;;1.80;;
7340;SDS011;6870;50.944;6.932;2023-05-10T15:32:49;2.30;;;2.00;;
7340;SDS011;6870;50.944;6.932;2023-05-10T15:35:17;2.47;;;1.20;;
7340;SDS011;6870;50.944;6.932;2023-05-10T15:37:46;2.80;;;1.83;;